Time;durP1;ratioP1;P1;durP2;ratioP2;P2;SDS_P1;SDS_P2;PMS_P1;PMS_P2;Temp;Humidity;BMP_temperature;BMP_pressure;BME280_temperature;BME280_humidity;BME280_pressure;Samples;Min_cycle;Max_cycle;Signal;HPM_P1;HPM_P2
2023/01/27 00:00:50;;;;;;;16.63;12.17;;;;;;;;;;4995085;28;20445;-59
2023/01/27 00:03:17;;;;;;;18.43;12.53;;;;;;;;;;4995027;28;20205;-59
2023/01/27 00:05:43;;;;;;;18.27;13.37;;;;;;;;;;4995266;28;20436;-58
2023/01/27 00:08:09;;;;;;;18.60;13.93;;;;;;;;;;4994881;28;20481;-58
2023/01/27 00:10:36;;;;;;;20.63;13.63;;;;;;;;;;4995131;28;20616;-57
2023/01/27 00:15:46;;;;;;;20.20;15.10;;;;;;;;;;4994983;28;20468;-58
2023/01/27 00:18:13;;;;;;;19.93;13.83;;;;;;;;;;4994755;28;20477;-59
2023/01/27 00:26:12;;;;;;;21.93;14.30;;;;;;;;;;4994352;28;20416;-59
2023/01/27 00:28:39;;;;;;;19.10;13.80;;;;;;;;;;4994775;28;20445;-58
2023/01/27 00:31:06;;;;;;;17.50;13.97;;;;;;;;;;4994478;28;20464;-58
2023/01/27 00:33:33;;;;;;;18.80;13.07;;;;;;;;;;4959629;28;20441;-58
2023/01/27 00:35:59;;;;;;;19.53;14.20;;;;;;;;;;4994580;28;20438;-58
2023/01/27 00:38:25;;;;;;;17.33;13.47;;;;;;;;;;4994397;28;20481;-60
2023/01/27 00:43:37;;;;;;;14.40;11.73;;;;;;;;;;4994513;28;20428;-57
2023/01/27 00:46:03;;;;;;;16.10;12.17;;;;;;;;;;4994250;28;20449;-58
2023/01/27 00:48:29;;;;;;;15.30;12.40;;;;;;;;;;4994483;28;20461;-58
2023/01/27 00:50:55;;;;;;;16.07;11.50;;;;;;;;;;4991705;28;20555;-59
2023/01/27 00:53:22;;;;;;;13.23;11.60;;;;;;;;;;4994245;28;20438;-59
2023/01/27 00:55:48;;;;;;;18.70;12.30;;;;;;;;;;4994263;28;20434;-56
2023/01/27 00:58:14;;;;;;;16.30;11.57;;;;;;;;;;4994190;28;20536;-57
2023/01/27 01:00:41;;;;;;;16.73;12.40;;;;;;;;;;4994366;28;20249;-58
2023/01/27 01:03:07;;;;;;;15.43;11.47;;;;;;;;;;4994080;28;20453;-58
2023/01/27 01:05:33;;;;;;;12.73;10.60;;;;;;;;;;4994116;28;20851;-58
2023/01/27 01:07:59;;;;;;;15.50;11.40;;;;;;;;;;4994167;28;20449;-57
2023/01/27 01:10:25;;;;;;;14.07;11.03;;;;;;;;;;4993995;28;20210;-56
2023/01/27 01:12:51;;;;;;;15.07;11.50;;;;;;;;;;4994153;28;20202;-56
2023/01/27 01:15:17;;;;;;;12.70;10.83;;;;;;;;;;4993939;28;20947;-57
2023/01/27 01:17:44;;;;;;;14.17;10.67;;;;;;;;;;4993851;28;20210;-57
2023/01/27 01:20:11;;;;;;;15.27;10.40;;;;;;;;;;4993777;28;20237;-57
2023/01/27 01:22:37;;;;;;;13.97;10.83;;;;;;;;;;4993814;28;20710;-57
2023/01/27 01:25:04;;;;;;;15.20;10.40;;;;;;;;;;4993635;28;20461;-58
2023/01/27 01:27:30;;;;;;;14.63;10.50;;;;;;;;;;4993871;28;20467;-58
2023/01/27 01:29:56;;;;;;;11.50;10.00;;;;;;;;;;4993769;28;20437;-58
2023/01/27 01:32:22;;;;;;;11.57;9.47;;;;;;;;;;4993499;28;20198;-58
2023/01/27 01:34:49;;;;;;;13.97;9.90;;;;;;;;;;4993653;28;20198;-58
2023/01/27 01:37:15;;;;;;;11.17;9.33;;;;;;;;;;4993566;28;20214;-58
2023/01/27 01:39:41;;;;;;;15.20;10.70;;;;;;;;;;4993572;28;20878;-58
2023/01/27 01:42:07;;;;;;;14.27;10.63;;;;;;;;;;4993465;28;20515;-58
2023/01/27 01:44:33;;;;;;;12.27;10.40;;;;;;;;;;4993285;28;20750;-58
2023/01/27 01:46:59;;;;;;;13.47;10.00;;;;;;;;;;4993398;28;20212;-58
2023/01/27 01:49:27;;;;;;;13.97;11.00;;;;;;;;;;4993390;28;20445;-58
2023/01/27 01:51:57;;;;;;;13.20;9.90;;;;;;;;;;4993272;28;20463;-57
2023/01/27 01:54:24;;;;;;;12.57;9.07;;;;;;;;;;4993088;28;21073;-57
2023/01/27 01:56:53;;;;;;;12.27;9.40;;;;;;;;;;4993156;28;20899;-57
2023/01/27 01:59:21;;;;;;;12.70;9.40;;;;;;;;;;4992950;28;20567;-57
2023/01/27 02:01:47;;;;;;;11.50;9.70;;;;;;;;;;4993028;28;20532;-57
2023/01/27 02:04:15;;;;;;;12.47;9.67;;;;;;;;;;4993313;28;20492;-57
2023/01/27 02:06:42;;;;;;;13.20;9.80;;;;;;;;;;4993066;28;20457;-57
2023/01/27 02:09:10;;;;;;;10.80;9.00;;;;;;;;;;4992834;28;20499;-57
2023/01/27 02:11:36;;;;;;;12.80;9.53;;;;;;;;;;4992950;28;20469;-58
2023/01/27 02:14:02;;;;;;;13.27;9.40;;;;;;;;;;4992734;28;20511;-57
2023/01/27 02:16:29;;;;;;;12.40;9.27;;;;;;;;;;4993086;28;20206;-57
2023/01/27 02:18:55;;;;;;;12.60;9.03;;;;;;;;;;4992646;28;20547;-58
2023/01/27 02:21:21;;;;;;;12.30;9.50;;;;;;;;;;4992084;28;20441;-58
2023/01/27 02:23:55;;;;;;;10.50;8.60;;;;;;;;;;4992858;28;20198;-57
2023/01/27 02:26:24;;;;;;;12.17;9.17;;;;;;;;;;4992609;28;20433;-57
2023/01/27 02:28:55;;;;;;;9.97;8.53;;;;;;;;;;4992574;28;20450;-58
2023/01/27 02:31:21;;;;;;;12.60;9.73;;;;;;;;;;4992529;28;20472;-57
2023/01/27 02:33:47;;;;;;;11.53;8.97;;;;;;;;;;4992430;28;20951;-57
2023/01/27 02:36:14;;;;;;;9.80;7.80;;;;;;;;;;4992441;28;20451;-57
2023/01/27 02:38:43;;;;;;;9.77;8.57;;;;;;;;;;4992335;28;21034;-58
2023/01/27 02:41:11;;;;;;;10.67;8.70;;;;;;;;;;4992181;28;20453;-58
2023/01/27 02:43:38;;;;;;;11.53;8.13;;;;;;;;;;4992210;28;20908;-57
2023/01/27 02:46:04;;;;;;;9.17;7.87;;;;;;;;;;4992420;28;20480;-58
2023/01/27 02:48:30;;;;;;;11.03;8.03;;;;;;;;;;4992385;28;20474;-58
2023/01/27 02:50:56;;;;;;;10.07;7.67;;;;;;;;;;4992365;28;20206;-58
2023/01/27 02:53:22;;;;;;;9.33;8.10;;;;;;;;;;4992115;28;20261;-57
2023/01/27 02:55:48;;;;;;;9.30;8.20;;;;;;;;;;4992163;28;20446;-57
2023/01/27 02:58:15;;;;;;;10.07;7.90;;;;;;;;;;4992360;28;20206;-56
2023/01/27 03:00:42;;;;;;;11.27;8.63;;;;;;;;;;4992156;28;20273;-57
2023/01/27 03:03:08;;;;;;;9.60;8.00;;;;;;;;;;4992139;28;20468;-61
2023/01/27 03:05:34;;;;;;;8.97;8.07;;;;;;;;;;4991998;28;20793;-56
2023/01/27 03:08:00;;;;;;;9.50;7.73;;;;;;;;;;4992302;28;20445;-56
2023/01/27 03:10:26;;;;;;;11.23;7.23;;;;;;;;;;4992180;28;20477;-57
2023/01/27 03:12:52;;;;;;;8.37;7.50;;;;;;;;;;4992027;28;20473;-57
2023/01/27 03:18:10;;;;;;;11.03;7.80;;;;;;;;;;4991912;28;20420;-57
2023/01/27 03:20:36;;;;;;;8.77;7.30;;;;;;;;;;4992033;28;20548;-57
2023/01/27 03:23:02;;;;;;;7.63;6.80;;;;;;;;;;4991817;28;20512;-57
2023/01/27 03:25:28;;;;;;;8.97;6.87;;;;;;;;;;4991880;28;20440;-57
2023/01/27 03:27:55;;;;;;;8.10;6.80;;;;;;;;;;4991886;28;20812;-57
2023/01/27 03:30:21;;;;;;;8.50;6.60;;;;;;;;;;4991811;28;20268;-57
2023/01/27 03:32:53;;;;;;;7.43;6.67;;;;;;;;;;4992267;28;20449;-57
2023/01/27 03:35:22;;;;;;;7.63;6.53;;;;;;;;;;4995812;28;20584;-57
2023/01/27 03:46:16;;;;;;;6.50;5.90;;;;;;;;;;4995712;28;20982;-57
2023/01/27 03:48:42;;;;;;;6.73;6.00;;;;;;;;;;4992447;28;20495;-57
2023/01/27 03:51:09;;;;;;;6.07;5.47;;;;;;;;;;4995643;28;20516;-58
2023/01/27 03:53:36;;;;;;;8.30;5.87;;;;;;;;;;4995533;28;20951;-58
2023/01/27 03:56:02;;;;;;;6.03;5.43;;;;;;;;;;4995430;28;20444;-58
2023/01/27 03:58:29;;;;;;;5.53;5.03;;;;;;;;;;4995442;28;20508;-58
2023/01/27 04:00:56;;;;;;;6.03;5.43;;;;;;;;;;4995362;28;20441;-58
2023/01/27 04:08:55;;;;;;;6.07;5.20;;;;;;;;;;4995266;28;20420;-57
2023/01/27 04:14:06;;;;;;;5.77;5.20;;;;;;;;;;4995440;28;20651;-57
2023/01/27 04:16:35;;;;;;;5.77;5.13;;;;;;;;;;4995145;28;20441;-58
2023/01/27 04:19:01;;;;;;;5.70;5.13;;;;;;;;;;4995073;28;20563;-56
2023/01/27 04:21:27;;;;;;;5.70;5.20;;;;;;;;;;4995145;28;20441;-57
2023/01/27 04:23:55;;;;;;;6.57;5.23;;;;;;;;;;4994942;28;20441;-56
2023/01/27 04:26:21;;;;;;;6.07;5.53;;;;;;;;;;4994985;28;20806;-56
2023/01/27 04:28:47;;;;;;;5.70;5.10;;;;;;;;;;4994891;28;20488;-56
2023/01/27 04:31:14;;;;;;;5.27;4.77;;;;;;;;;;4994802;28;20428;-56
2023/01/27 04:33:40;;;;;;;4.83;4.40;;;;;;;;;;4995045;28;20557;-56
2023/01/27 04:36:06;;;;;;;5.87;4.97;;;;;;;;;;4994625;28;20921;-55
2023/01/27 04:38:32;;;;;;;6.13;5.10;;;;;;;;;;4994677;28;20322;-55
2023/01/27 04:41:00;;;;;;;5.10;4.57;;;;;;;;;;4994750;28;20536;-55
2023/01/27 04:43:26;;;;;;;5.40;4.80;;;;;;;;;;4994632;28;20618;-56
2023/01/27 04:45:52;;;;;;;5.60;5.10;;;;;;;;;;4994015;28;20503;-56
2023/01/27 04:48:18;;;;;;;5.07;4.60;;;;;;;;;;4994438;28;20464;-56
2023/01/27 04:50:44;;;;;;;5.27;4.77;;;;;;;;;;4994518;28;20445;-61
2023/01/27 04:53:10;;;;;;;5.47;5.03;;;;;;;;;;4994499;28;20202;-54
2023/01/27 04:55:36;;;;;;;6.07;4.87;;;;;;;;;;4994583;28;20605;-54
2023/01/27 04:58:04;;;;;;;5.33;4.83;;;;;;;;;;4994311;28;20285;-56
2023/01/27 05:00:30;;;;;;;5.67;5.17;;;;;;;;;;4994160;28;20257;-57
2023/01/27 05:02:56;;;;;;;6.07;5.40;;;;;;;;;;4994402;28;20468;-57
2023/01/27 05:05:22;;;;;;;5.53;4.93;;;;;;;;;;4994407;28;20202;-57
2023/01/27 05:07:48;;;;;;;5.20;4.80;;;;;;;;;;4994177;28;20570;-58
2023/01/27 05:10:14;;;;;;;5.13;4.73;;;;;;;;;;4994176;28;20198;-56
2023/01/27 05:12:40;;;;;;;5.47;4.70;;;;;;;;;;4994201;28;20445;-56
2023/01/27 05:15:08;;;;;;;4.97;4.47;;;;;;;;;;4993965;28;20281;-56
2023/01/27 05:17:34;;;;;;;5.37;4.87;;;;;;;;;;4993772;28;20298;-56
2023/01/27 05:20:00;;;;;;;5.20;4.80;;;;;;;;;;4993984;28;20572;-55
2023/01/27 05:22:26;;;;;;;4.80;4.40;;;;;;;;;;4993908;28;20198;-56
2023/01/27 05:24:52;;;;;;;4.43;4.13;;;;;;;;;;4993855;28;20198;-57
2023/01/27 05:27:18;;;;;;;4.43;4.03;;;;;;;;;;4993748;28;20221;-57
2023/01/27 05:29:44;;;;;;;4.50;4.10;;;;;;;;;;4993932;28;20676;-57
2023/01/27 05:32:11;;;;;;;4.53;4.13;;;;;;;;;;4993713;28;20205;-57
2023/01/27 05:34:37;;;;;;;3.80;3.50;;;;;;;;;;4993692;28;20470;-56
2023/01/27 05:37:03;;;;;;;3.97;3.67;;;;;;;;;;4993729;28;20442;-56
2023/01/27 05:39:29;;;;;;;3.90;3.50;;;;;;;;;;4993573;28;20229;-56
2023/01/27 05:41:55;;;;;;;3.73;3.43;;;;;;;;;;4993487;28;20876;-56
2023/01/27 05:44:21;;;;;;;4.07;3.67;;;;;;;;;;4993361;28;20304;-56
2023/01/27 05:46:47;;;;;;;4.03;3.20;;;;;;;;;;4993312;28;20198;-56
2023/01/27 05:49:14;;;;;;;3.70;3.40;;;;;;;;;;4993428;28;20203;-57
2023/01/27 05:51:40;;;;;;;3.80;3.40;;;;;;;;;;4993475;28;20576;-57
2023/01/27 05:54:07;;;;;;;5.37;3.50;;;;;;;;;;4993310;28;20430;-57
2023/01/27 05:56:33;;;;;;;3.50;3.20;;;;;;;;;;4992485;28;20551;-57
2023/01/27 05:58:59;;;;;;;3.10;2.80;;;;;;;;;;4993380;28;20503;-57
2023/01/27 06:01:26;;;;;;;4.10;3.10;;;;;;;;;;4993009;28;20444;-57
2023/01/27 06:03:53;;;;;;;3.30;3.00;;;;;;;;;;4993126;28;20920;-57
2023/01/27 06:06:20;;;;;;;5.33;3.50;;;;;;;;;;4992947;28;20430;-57
2023/01/27 06:08:47;;;;;;;3.00;2.80;;;;;;;;;;4993127;28;20437;-57
2023/01/27 06:11:13;;;;;;;3.97;2.97;;;;;;;;;;4993015;28;20441;-57
2023/01/27 06:13:39;;;;;;;3.93;2.90;;;;;;;;;;4993068;28;20496;-58
2023/01/27 06:16:07;;;;;;;3.13;2.93;;;;;;;;;;4992694;28;20430;-58
2023/01/27 06:18:33;;;;;;;2.93;2.73;;;;;;;;;;4992221;28;20503;-57
2023/01/27 06:20:59;;;;;;;3.10;2.80;;;;;;;;;;4992515;28;20437;-58
2023/01/27 06:23:27;;;;;;;2.87;2.67;;;;;;;;;;4992644;28;20460;-57
2023/01/27 06:25:53;;;;;;;2.83;2.43;;;;;;;;;;4992725;28;20433;-57
2023/01/27 06:28:19;;;;;;;3.70;2.80;;;;;;;;;;4992399;28;20438;-57
2023/01/27 06:30:45;;;;;;;2.90;2.70;;;;;;;;;;4992399;28;20444;-58
2023/01/27 06:33:11;;;;;;;3.37;3.00;;;;;;;;;;4992353;28;20206;-58
2023/01/27 06:35:38;;;;;;;3.87;3.17;;;;;;;;;;4992459;28;20529;-58
2023/01/27 06:38:05;;;;;;;4.57;3.60;;;;;;;;;;4992254;28;20445;-58
2023/01/27 06:40:33;;;;;;;3.20;2.90;;;;;;;;;;4992082;28;20493;-59
2023/01/27 06:42:59;;;;;;;2.97;2.77;;;;;;;;;;4992485;28;20460;-58
2023/01/27 06:45:25;;;;;;;2.77;2.57;;;;;;;;;;4992043;28;20999;-58
2023/01/27 06:47:55;;;;;;;3.13;2.83;;;;;;;;;;4992217;28;20989;-58
2023/01/27 06:50:21;;;;;;;3.60;3.10;;;;;;;;;;4992090;28;20434;-59
2023/01/27 06:52:47;;;;;;;3.70;2.40;;;;;;;;;;4991964;28;20516;-59
2023/01/27 06:55:13;;;;;;;2.73;2.13;;;;;;;;;;4992205;28;20528;-58
2023/01/27 06:57:41;;;;;;;2.63;2.43;;;;;;;;;;4992226;28;20198;-59
2023/01/27 07:00:08;;;;;;;2.40;2.20;;;;;;;;;;4991864;28;21019;-59
2023/01/27 07:02:34;;;;;;;2.37;2.17;;;;;;;;;;4992067;28;20524;-58
2023/01/27 07:05:00;;;;;;;3.10;2.40;;;;;;;;;;4992194;28;20944;-58
2023/01/27 07:07:26;;;;;;;2.57;2.27;;;;;;;;;;4992023;28;20270;-58
2023/01/27 07:09:52;;;;;;;4.40;2.20;;;;;;;;;;4991998;28;20197;-58
2023/01/27 07:12:18;;;;;;;2.57;2.23;;;;;;;;;;4991909;28;20499;-58
2023/01/27 07:14:45;;;;;;;2.50;2.13;;;;;;;;;;4992219;28;20277;-58
2023/01/27 07:17:11;;;;;;;3.83;2.53;;;;;;;;;;4992030;28;20213;-59
2023/01/27 07:19:37;;;;;;;2.27;2.17;;;;;;;;;;4991694;28;20477;-58
2023/01/27 07:22:03;;;;;;;2.63;2.10;;;;;;;;;;4991869;28;20703;-58
2023/01/27 07:24:29;;;;;;;2.90;2.13;;;;;;;;;;4991925;28;20205;-60
2023/01/27 07:26:56;;;;;;;2.20;2.00;;;;;;;;;;4991873;28;20445;-59
2023/01/27 07:29:22;;;;;;;1.80;1.70;;;;;;;;;;4991751;28;20284;-58
2023/01/27 07:31:49;;;;;;;2.93;1.80;;;;;;;;;;4991845;28;20524;-57
2023/01/27 07:34:15;;;;;;;1.93;1.80;;;;;;;;;;4991752;28;20237;-57
2023/01/27 07:36:41;;;;;;;1.87;1.77;;;;;;;;;;4991898;28;20469;-58
2023/01/27 07:39:07;;;;;;;1.90;1.80;;;;;;;;;;4991587;28;20752;-56
2023/01/27 07:41:33;;;;;;;1.80;1.60;;;;;;;;;;4991465;28;20545;-58
2023/01/27 07:43:59;;;;;;;2.00;1.67;;;;;;;;;;4991808;28;20603;-58
2023/01/27 07:46:25;;;;;;;1.90;1.80;;;;;;;;;;4991748;28;20951;-57
2023/01/27 07:48:52;;;;;;;1.80;1.70;;;;;;;;;;4991882;28;20200;-56
2023/01/27 07:51:18;;;;;;;1.70;1.60;;;;;;;;;;4991586;28;20963;-56
2023/01/27 07:53:44;;;;;;;1.60;1.50;;;;;;;;;;4991819;28;20445;-56
2023/01/27 07:56:11;;;;;;;1.60;1.50;;;;;;;;;;4991734;28;20210;-57
2023/01/27 07:58:37;;;;;;;1.40;1.30;;;;;;;;;;4991704;28;20194;-56
2023/01/27 08:01:04;;;;;;;1.60;1.50;;;;;;;;;;4991509;28;20437;-56
2023/01/27 08:03:30;;;;;;;1.50;1.40;;;;;;;;;;4991568;28;20442;-58
2023/01/27 08:05:57;;;;;;;1.70;1.57;;;;;;;;;;4991639;28;20437;-56
2023/01/27 08:08:23;;;;;;;1.40;1.30;;;;;;;;;;4991570;28;20210;-56
2023/01/27 08:10:50;;;;;;;1.23;1.20;;;;;;;;;;4991540;28;20425;-58
2023/01/27 08:13:16;;;;;;;1.30;1.20;;;;;;;;;;4991499;28;20229;-56
2023/01/27 08:15:42;;;;;;;1.83;1.43;;;;;;;;;;4991592;28;20434;-57
2023/01/27 08:18:09;;;;;;;1.40;1.30;;;;;;;;;;4991329;28;20441;-57
2023/01/27 08:20:35;;;;;;;1.60;1.50;;;;;;;;;;4994164;28;20485;-57
2023/01/27 08:23:02;;;;;;;1.70;1.60;;;;;;;;;;4995028;28;20437;-57
2023/01/27 08:25:28;;;;;;;1.63;1.53;;;;;;;;;;4994908;28;20453;-57
2023/01/27 08:27:55;;;;;;;1.67;1.57;;;;;;;;;;4994929;28;20444;-55
2023/01/27 08:30:21;;;;;;;1.60;1.50;;;;;;;;;;4994703;28;20301;-56
2023/01/27 08:32:47;;;;;;;2.10;1.90;;;;;;;;;;4994823;28;20449;-57
2023/01/27 08:35:13;;;;;;;2.33;1.80;;;;;;;;;;4994937;28;20480;-57
2023/01/27 08:37:39;;;;;;;1.80;1.70;;;;;;;;;;4994628;28;20469;-56
2023/01/27 08:40:07;;;;;;;2.00;1.80;;;;;;;;;;4994394;28;20249;-57
2023/01/27 08:42:33;;;;;;;2.70;1.80;;;;;;;;;;4994607;28;20241;-57
2023/01/27 08:44:59;;;;;;;1.80;1.70;;;;;;;;;;4994525;28;20485;-56
2023/01/27 08:47:25;;;;;;;1.90;1.70;;;;;;;;;;4994364;28;20298;-56
2023/01/27 08:49:53;;;;;;;2.10;1.90;;;;;;;;;;4994551;28;20202;-56
2023/01/27 08:52:19;;;;;;;3.10;1.93;;;;;;;;;;4994238;28;20202;-57
2023/01/27 08:54:45;;;;;;;3.77;2.27;;;;;;;;;;4994414;28;20434;-58
2023/01/27 08:57:12;;;;;;;2.40;1.87;;;;;;;;;;4994370;28;20814;-56
2023/01/27 08:59:38;;;;;;;3.13;1.90;;;;;;;;;;4994071;28;20594;-57
2023/01/27 09:02:04;;;;;;;2.07;1.93;;;;;;;;;;4994271;28;20956;-57
2023/01/27 09:04:30;;;;;;;2.07;1.93;;;;;;;;;;4994322;28;20206;-57
2023/01/27 09:06:56;;;;;;;1.80;1.70;;;;;;;;;;4994205;28;20202;-57
2023/01/27 09:09:22;;;;;;;2.73;1.70;;;;;;;;;;4994005;28;20210;-57
2023/01/27 09:11:48;;;;;;;2.20;2.00;;;;;;;;;;4994079;28;20201;-57
2023/01/27 09:14:15;;;;;;;1.90;1.80;;;;;;;;;;4993929;28;20809;-57
2023/01/27 09:16:41;;;;;;;2.53;2.03;;;;;;;;;;4994146;28;20680;-58
2023/01/27 09:19:07;;;;;;;3.30;2.10;;;;;;;;;;4993815;28;20483;-56
2023/01/27 09:21:33;;;;;;;2.20;2.00;;;;;;;;;;4993789;28;20194;-57
2023/01/27 09:23:59;;;;;;;2.13;1.83;;;;;;;;;;4993903;28;20204;-56
2023/01/27 09:26:25;;;;;;;2.17;1.70;;;;;;;;;;4993801;28;20206;-56
2023/01/27 09:28:51;;;;;;;2.37;1.90;;;;;;;;;;4993749;28;20205;-58
2023/01/27 09:31:18;;;;;;;2.63;1.63;;;;;;;;;;4992666;28;20208;-57
2023/01/27 09:33:44;;;;;;;1.80;1.70;;;;;;;;;;4993752;28;20206;-56
2023/01/27 09:36:13;;;;;;;1.80;1.70;;;;;;;;;;4993638;28;20625;-57
2023/01/27 09:38:41;;;;;;;2.13;1.63;;;;;;;;;;4993377;28;20310;-56
2023/01/27 09:41:25;;;;;;;2.10;1.80;;;;;;;;;;4993458;28;20500;-55
2023/01/27 09:44:04;;;;;;;1.70;1.60;;;;;;;;;;4944425;28;20493;-57
2023/01/27 09:46:41;;;;;;;1.80;1.70;;;;;;;;;;4993291;28;20805;-56
2023/01/27 09:49:17;;;;;;;1.97;1.77;;;;;;;;;;4993038;28;20216;-56
2023/01/27 09:51:46;;;;;;;1.93;1.73;;;;;;;;;;4993392;28;20441;-56
2023/01/27 09:54:20;;;;;;;1.60;1.50;;;;;;;;;;4993129;28;20289;-57
2023/01/27 09:56:50;;;;;;;2.60;1.50;;;;;;;;;;4993054;28;20999;-56
2023/01/27 09:59:35;;;;;;;1.93;1.50;;;;;;;;;;4993106;28;20493;-57
2023/01/27 10:02:08;;;;;;;1.50;1.40;;;;;;;;;;4993096;28;20449;-57
2023/01/27 10:04:41;;;;;;;1.30;1.20;;;;;;;;;;4992762;28;20790;-57
2023/01/27 10:07:25;;;;;;;1.90;1.33;;;;;;;;;;4975622;28;20620;-57
2023/01/27 10:09:59;;;;;;;1.97;1.30;;;;;;;;;;4976829;28;20206;-56
2023/01/27 10:12:34;;;;;;;1.40;1.30;;;;;;;;;;4992756;28;20449;-56
2023/01/27 10:15:05;;;;;;;2.27;1.50;;;;;;;;;;4992773;28;20202;-57
2023/01/27 10:17:35;;;;;;;1.80;1.70;;;;;;;;;;4992629;28;20276;-57
2023/01/27 10:20:08;;;;;;;1.50;1.40;;;;;;;;;;4992699;28;20560;-56
2023/01/27 10:22:38;;;;;;;2.20;1.30;;;;;;;;;;4992642;28;20481;-57
2023/01/27 10:25:14;;;;;;;1.40;1.30;;;;;;;;;;4992776;28;20206;-60
2023/01/27 10:27:44;;;;;;;9.10;4.87;;;;;;;;;;4992773;28;20498;-57
2023/01/27 10:30:13;;;;;;;3.17;2.87;;;;;;;;;;4992591;28;20908;-57
2023/01/27 10:32:43;;;;;;;2.93;2.67;;;;;;;;;;4992718;28;20468;-57
2023/01/27 10:35:14;;;;;;;1.20;1.10;;;;;;;;;;4992495;28;20664;-57
2023/01/27 10:37:46;;;;;;;1.80;1.23;;;;;;;;;;4992604;28;20445;-57
2023/01/27 10:40:15;;;;;;;1.50;1.37;;;;;;;;;;4992377;28;20489;-56
2023/01/27 10:42:45;;;;;;;1.37;1.27;;;;;;;;;;4992308;28;20265;-54
2023/01/27 10:45:21;;;;;;;1.57;1.47;;;;;;;;;;4992147;28;20552;-56
2023/01/27 10:47:55;;;;;;;1.40;1.30;;;;;;;;;;4992439;28;20198;-56
2023/01/27 10:50:23;;;;;;;2.97;1.60;;;;;;;;;;4992302;28;20453;-56
2023/01/27 10:52:54;;;;;;;1.33;1.23;;;;;;;;;;4992243;28;20282;-58
2023/01/27 10:55:24;;;;;;;1.43;1.33;;;;;;;;;;4992262;28;20442;-58
2023/01/27 10:57:53;;;;;;;1.60;1.40;;;;;;;;;;4992396;28;20437;-57
2023/01/27 11:00:26;;;;;;;2.00;1.40;;;;;;;;;;4992081;28;20556;-58
2023/01/27 11:02:57;;;;;;;1.37;1.27;;;;;;;;;;4992307;28;20833;-56
2023/01/27 11:05:27;;;;;;;1.23;1.13;;;;;;;;;;4992425;28;20548;-57
2023/01/27 11:07:56;;;;;;;1.47;1.37;;;;;;;;;;4992275;28;20484;-57
2023/01/27 11:10:22;;;;;;;1.50;1.40;;;;;;;;;;4991901;28;21030;-56
2023/01/27 11:12:50;;;;;;;1.70;1.60;;;;;;;;;;4992074;28;20217;-57
2023/01/27 11:15:18;;;;;;;1.80;1.70;;;;;;;;;;4991941;28;20871;-57
2023/01/27 11:17:46;;;;;;;2.03;1.70;;;;;;;;;;4991838;28;20656;-57
2023/01/27 11:20:22;;;;;;;1.53;1.43;;;;;;;;;;4991961;28;20238;-57
2023/01/27 11:22:52;;;;;;;1.40;1.20;;;;;;;;;;4991883;28;20244;-56
2023/01/27 11:25:22;;;;;;;1.30;1.20;;;;;;;;;;4991827;28;20657;-56
2023/01/27 11:28:06;;;;;;;2.50;1.40;;;;;;;;;;4992045;28;20210;-57
2023/01/27 11:30:36;;;;;;;1.40;1.30;;;;;;;;;;4991337;28;20198;-60
2023/01/27 11:33:04;;;;;;;1.97;1.60;;;;;;;;;;4992005;28;20528;-58
2023/01/27 11:35:31;;;;;;;3.53;1.57;;;;;;;;;;4991915;28;20201;-57
2023/01/27 11:37:57;;;;;;;1.30;1.20;;;;;;;;;;4992331;28;20442;-56
2023/01/27 11:40:27;;;;;;;2.17;1.50;;;;;;;;;;4991710;28;20704;-57
2023/01/27 11:42:54;;;;;;;1.37;1.27;;;;;;;;;;4991877;28;20304;-57
2023/01/27 11:45:21;;;;;;;1.90;1.50;;;;;;;;;;4991376;28;20234;-58
2023/01/27 11:47:48;;;;;;;1.40;1.30;;;;;;;;;;4991759;28;20917;-57
2023/01/27 11:50:15;;;;;;;1.87;1.30;;;;;;;;;;4991562;28;20912;-57
2023/01/27 11:52:43;;;;;;;1.50;1.40;;;;;;;;;;4991880;28;20202;-57
2023/01/27 11:55:15;;;;;;;2.43;1.60;;;;;;;;;;4994251;28;20503;-57
2023/01/27 11:57:42;;;;;;;1.40;1.30;;;;;;;;;;4995820;28;20456;-58
2023/01/27 12:00:16;;;;;;;1.60;1.50;;;;;;;;;;4995600;28;20491;-57
2023/01/27 12:02:44;;;;;;;2.40;1.60;;;;;;;;;;4995730;28;20445;-58
2023/01/27 12:05:13;;;;;;;2.47;1.70;;;;;;;;;;4995612;28;20889;-57
2023/01/27 12:07:43;;;;;;;2.37;2.07;;;;;;;;;;4995622;28;20198;-58
2023/01/27 12:10:26;;;;;;;1.87;1.77;;;;;;;;;;4995860;28;20198;-58
2023/01/27 12:12:52;;;;;;;3.63;1.97;;;;;;;;;;4995693;28;20441;-57
2023/01/27 12:15:18;;;;;;;2.13;1.93;;;;;;;;;;4995138;28;20790;-57
2023/01/27 12:17:46;;;;;;;1.47;1.37;;;;;;;;;;4995397;28;20289;-57
2023/01/27 12:20:22;;;;;;;3.00;1.40;;;;;;;;;;4994947;28;20703;-57
2023/01/27 12:22:51;;;;;;;2.20;1.60;;;;;;;;;;4995064;28;20437;-57
2023/01/27 12:25:19;;;;;;;1.73;1.50;;;;;;;;;;4994875;28;20473;-57
2023/01/27 12:27:49;;;;;;;2.20;1.47;;;;;;;;;;4995009;28;20467;-57
2023/01/27 12:30:19;;;;;;;2.30;1.40;;;;;;;;;;4995177;28;20253;-57
2023/01/27 12:32:46;;;;;;;2.20;2.00;;;;;;;;;;4994828;28;20446;-56
2023/01/27 12:35:18;;;;;;;1.47;1.37;;;;;;;;;;4994967;28;20786;-57
2023/01/27 12:37:44;;;;;;;3.10;1.70;;;;;;;;;;4995233;28;20425;-57
2023/01/27 12:40:18;;;;;;;2.90;1.50;;;;;;;;;;4994850;28;20484;-58
2023/01/27 12:42:47;;;;;;;1.70;1.60;;;;;;;;;;4994799;28;20994;-57
2023/01/27 12:45:33;;;;;;;2.13;1.23;;;;;;;;;;4994592;28;20475;-60
2023/01/27 12:48:15;;;;;;;1.50;1.40;;;;;;;;;;4994835;28;20437;-57
2023/01/27 12:50:42;;;;;;;1.83;1.40;;;;;;;;;;4994857;28;20502;-56
2023/01/27 12:53:11;;;;;;;1.50;1.40;;;;;;;;;;4994678;28;20516;-57
2023/01/27 12:55:39;;;;;;;1.47;1.37;;;;;;;;;;4994579;28;20436;-56
2023/01/27 12:58:05;;;;;;;2.73;1.50;;;;;;;;;;4994634;28;20819;-57
2023/01/27 13:00:32;;;;;;;2.67;1.43;;;;;;;;;;4994367;28;20481;-57
2023/01/27 13:03:03;;;;;;;1.70;1.53;;;;;;;;;;4994588;28;20438;-57
2023/01/27 13:05:34;;;;;;;1.87;1.43;;;;;;;;;;4994178;28;20452;-63
2023/01/27 13:08:01;;;;;;;3.67;1.70;;;;;;;;;;4997615;28;20519;-60
2023/01/27 13:10:27;;;;;;;1.60;1.33;;;;;;;;;;5013585;28;20473;-66
2023/01/27 13:12:54;;;;;;;2.33;1.40;;;;;;;;;;5013878;28;20436;-60
2023/01/27 13:15:21;;;;;;;2.83;1.63;;;;;;;;;;5011513;28;20687;-60
2023/01/27 13:17:48;;;;;;;2.80;1.80;;;;;;;;;;5013903;28;20205;-61
2023/01/27 13:20:17;;;;;;;2.77;1.97;;;;;;;;;;5010186;28;20320;-62
2023/01/27 13:22:45;;;;;;;2.23;2.03;;;;;;;;;;5013433;28;20229;-62
2023/01/27 13:25:14;;;;;;;2.87;1.93;;;;;;;;;;5013392;28;20202;-62
2023/01/27 13:27:40;;;;;;;2.20;2.00;;;;;;;;;;5011668;28;20255;-54
2023/01/27 13:30:12;;;;;;;2.23;1.90;;;;;;;;;;5006227;28;20193;-52
2023/01/27 13:32:39;;;;;;;2.47;1.90;;;;;;;;;;4993459;28;20206;-52
2023/01/27 13:35:10;;;;;;;2.90;1.80;;;;;;;;;;4993648;28;20230;-52
2023/01/27 13:37:40;;;;;;;4.83;2.10;;;;;;;;;;4993225;28;20236;-52
2023/01/27 13:40:13;;;;;;;2.40;2.20;;;;;;;;;;4993375;28;20210;-50
2023/01/27 13:42:40;;;;;;;4.47;2.33;;;;;;;;;;4993387;28;20450;-50
2023/01/27 13:45:11;;;;;;;4.40;2.27;;;;;;;;;;4993117;28;20980;-50
2023/01/27 13:47:41;;;;;;;4.37;2.47;;;;;;;;;;4993133;28;20488;-50
2023/01/27 13:50:16;;;;;;;4.33;2.70;;;;;;;;;;4993362;28;20477;-50
2023/01/27 13:52:44;;;;;;;4.93;3.10;;;;;;;;;;4991615;28;20452;-50
2023/01/27 13:55:11;;;;;;;3.73;2.80;;;;;;;;;;4991670;28;20480;-47
2023/01/27 13:57:45;;;;;;;5.83;2.83;;;;;;;;;;4993133;28;20445;-52
2023/01/27 14:00:18;;;;;;;5.40;2.83;;;;;;;;;;4992935;28;20477;-49
2023/01/27 14:02:56;;;;;;;3.43;2.47;;;;;;;;;;4993058;28;20925;-51
2023/01/27 14:05:29;;;;;;;2.90;2.60;;;;;;;;;;4991255;28;20878;-51
2023/01/27 14:08:00;;;;;;;3.87;2.60;;;;;;;;;;4993268;28;20438;-50
2023/01/27 14:10:31;;;;;;;4.63;2.80;;;;;;;;;;4993223;28;20483;-52
2023/01/27 14:13:06;;;;;;;2.60;2.40;;;;;;;;;;4992896;28;20520;-52
2023/01/27 14:15:35;;;;;;;3.13;2.50;;;;;;;;;;4990754;28;20802;-52
2023/01/27 14:18:04;;;;;;;3.53;2.30;;;;;;;;;;4991644;28;20484;-51
2023/01/27 14:20:40;;;;;;;4.77;2.30;;;;;;;;;;4992233;28;20473;-51
2023/01/27 14:23:23;;;;;;;3.73;2.33;;;;;;;;;;4992397;28;20495;-51
2023/01/27 14:25:53;;;;;;;2.77;2.57;;;;;;;;;;4992368;28;20463;-51
2023/01/27 14:28:24;;;;;;;2.70;2.40;;;;;;;;;;4992074;28;20861;-51
2023/01/27 14:30:54;;;;;;;2.33;2.13;;;;;;;;;;4992874;28;20469;-51
2023/01/27 14:33:24;;;;;;;3.23;2.30;;;;;;;;;;4992514;28;20477;-51
2023/01/27 14:35:54;;;;;;;3.13;2.33;;;;;;;;;;4992214;28;20452;-51
2023/01/27 14:38:23;;;;;;;2.97;2.30;;;;;;;;;;4992140;28;20500;-51
2023/01/27 14:40:56;;;;;;;2.60;2.40;;;;;;;;;;4992115;28;20488;-51
2023/01/27 14:43:28;;;;;;;3.73;2.37;;;;;;;;;;4992177;28;20441;-52
2023/01/27 14:45:57;;;;;;;3.83;2.40;;;;;;;;;;4992102;28;20560;-51
2023/01/27 14:48:38;;;;;;;4.00;2.37;;;;;;;;;;4992443;28;20445;-51
2023/01/27 14:51:07;;;;;;;3.07;2.10;;;;;;;;;;4992000;28;20927;-51
2023/01/27 14:53:43;;;;;;;3.60;2.30;;;;;;;;;;4992342;28;20433;-51
2023/01/27 14:56:11;;;;;;;4.53;2.30;;;;;;;;;;4992458;28;20449;-51
2023/01/27 14:58:52;;;;;;;2.13;1.70;;;;;;;;;;4991960;28;20442;-51
2023/01/27 15:01:24;;;;;;;4.57;2.20;;;;;;;;;;4991921;28;20516;-51
2023/01/27 15:04:01;;;;;;;1.60;1.50;;;;;;;;;;4992124;28;20433;-51
2023/01/27 15:06:31;;;;;;;1.80;1.63;;;;;;;;;;4992166;28;20442;-51
2023/01/27 15:09:01;;;;;;;1.87;1.77;;;;;;;;;;4992443;28;20520;-51
2023/01/27 15:11:34;;;;;;;1.97;1.70;;;;;;;;;;4992258;28;20441;-52
2023/01/27 15:14:07;;;;;;;5.93;2.27;;;;;;;;;;4992271;28;20460;-51